Time;durP1;ratioP1;P1;durP2;ratioP2;P2;SDS_P1;SDS_P2;PMS_P1;PMS_P2;Temp;Humidity;BMP_temperature;BMP_pressure;BME280_temperature;BME280_humidity;BME280_pressure;Samples;Min_cycle;Max_cycle;Signal;HPM_P1;HPM_P2
2021/08/04 00:01:11;;;;;;;12.00;8.38;;;615.10;1843.20;;;;;;5155883;27;20011;-80
2021/08/04 00:03:37;;;;;;;12.68;7.53;;;615.10;1843.20;;;;;;5136848;27;20031;-80
2021/08/04 00:06:03;;;;;;;14.60;7.90;;;614.80;1868.80;;;;;;5136783;27;20075;-81
2021/08/04 00:08:28;;;;;;;10.35;7.47;;;614.80;1868.80;;;;;;5155879;27;20019;-81
2021/08/04 00:10:54;;;;;;;19.48;7.70;;;614.80;1843.20;;;;;;5136480;27;20038;-81
2021/08/04 00:13:20;;;;;;;20.48;7.15;;;615.00;1843.20;;;;;;5137346;27;20031;-81
2021/08/04 00:15:46;;;;;;;17.02;7.53;;;615.00;1817.60;;;;;;5136870;27;20033;-81
2021/08/04 00:18:12;;;;;;;12.57;7.63;;;615.00;1817.60;;;;;;5137057;27;20022;-80
2021/08/04 00:20:37;;;;;;;9.02;7.10;;;615.00;1817.60;;;;;;5136766;27;20111;-80
2021/08/04 00:23:03;;;;;;;15.35;7.60;;;615.10;1817.60;;;;;;5155405;27;20526;-80
2021/08/04 00:25:29;;;;;;;12.45;7.13;;;615.00;1817.60;;;;;;5136887;27;20440;-80
2021/08/04 00:27:55;;;;;;;11.82;7.03;;;615.20;1792.00;;;;;;5154608;27;20030;-80
2021/08/04 00:30:21;;;;;;;14.27;6.65;;;615.30;1766.40;;;;;;5136884;27;20018;-81
2021/08/04 00:32:47;;;;;;;9.95;6.45;;;615.30;1792.00;;;;;;5136156;27;20402;-80
2021/08/04 00:35:12;;;;;;;13.60;7.03;;;615.30;1792.00;;;;;;5136530;27;20015;-79
2021/08/04 00:37:38;;;;;;;12.20;6.80;;;615.30;1766.40;;;;;;5136443;27;20026;-81
2021/08/04 00:40:06;;;;;;;14.30;7.40;;;615.30;1792.00;;;;;;5136172;27;20165;-81
2021/08/04 00:42:32;;;;;;;13.70;8.20;;;615.30;1792.00;;;;;;5154464;27;20027;-80
2021/08/04 00:44:58;;;;;;;10.77;7.07;;;640.00;1792.00;;;;;;5135694;27;20029;-81
2021/08/04 00:47:24;;;;;;;9.02;6.82;;;615.30;1792.00;;;;;;5136241;27;20023;-80
2021/08/04 00:49:51;;;;;;;11.77;7.07;;;615.10;1792.00;;;;;;5136300;27;20048;-78
2021/08/04 00:52:16;;;;;;;12.20;7.90;;;640.00;1792.00;;;;;;5154940;27;20023;-79
2021/08/04 00:54:42;;;;;;;8.90;7.13;;;640.00;1792.00;;;;;;5136231;27;20134;-79
2021/08/04 00:57:08;;;;;;;10.13;6.80;;;640.00;1766.40;;;;;;5135665;27;20082;-80
2021/08/04 00:59:37;;;;;;;13.82;6.55;;;640.00;1792.00;;;;;;5154272;27;20464;-79
2021/08/04 01:02:18;;;;;;;7.28;5.82;;;615.20;1792.00;;;;;;5154652;27;20034;-80
2021/08/04 01:05:06;;;;;;;8.82;5.68;;;615.20;1792.00;;;;;;5134513;27;20030;-78
2021/08/04 01:07:39;;;;;;;11.05;6.70;;;615.20;1766.40;;;;;;5151506;27;20026;-80
2021/08/04 01:10:29;;;;;;;8.80;6.38;;;615.30;1766.40;;;;;;5135221;27;20090;-79
2021/08/04 01:13:24;;;;;;;9.68;6.45;;;615.20;1792.00;;;;;;5133476;27;20487;-79
2021/08/04 01:16:10;;;;;;;9.90;6.15;;;615.20;1792.00;;;;;;5153626;27;20017;-81
2021/08/04 01:18:47;;;;;;;12.10;7.18;;;615.30;1766.40;;;;;;5133091;27;20019;-81
2021/08/04 01:21:15;;;;;;;9.13;6.00;;;615.30;1792.00;;;;;;5151488;27;20022;-81
2021/08/04 01:23:57;;;;;;;11.73;6.45;;;640.00;1766.40;;;;;;5135318;27;20074;-81
2021/08/04 01:26:35;;;;;;;9.85;6.22;;;640.00;1766.40;;;;;;5133986;27;20014;-80
2021/08/04 01:29:01;;;;;;;13.00;7.07;;;640.10;1766.40;;;;;;5131239;27;20109;-81
2021/08/04 01:31:30;;;;;;;10.25;5.82;;;640.10;1766.40;;;;;;5135231;27;20046;-83
2021/08/04 01:33:58;;;;;;;9.13;5.60;;;640.20;1740.80;;;;;;5150898;27;20060;-79
2021/08/04 01:36:24;;;;;;;9.30;5.78;;;640.10;1766.40;;;;;;5135352;27;20042;-80
2021/08/04 01:38:53;;;;;;;11.52;5.75;;;640.00;1766.40;;;;;;5135190;27;20126;-80
2021/08/04 01:41:19;;;;;;;11.57;6.95;;;640.00;1766.40;;;;;;5134152;27;20087;-80
2021/08/04 01:43:46;;;;;;;9.85;6.07;;;640.00;1766.40;;;;;;5134684;27;20499;-81
2021/08/04 01:46:13;;;;;;;14.02;7.20;;;640.00;1766.40;;;;;;5135028;27;20080;-80
2021/08/04 01:48:40;;;;;;;10.75;6.20;;;615.30;1766.40;;;;;;5152570;27;20019;-81
2021/08/04 01:51:08;;;;;;;7.80;5.80;;;615.30;1766.40;;;;;;5134163;27;20015;-81
2021/08/04 01:53:35;;;;;;;12.40;5.55;;;615.30;1766.40;;;;;;5151253;27;20123;-80
2021/08/04 01:56:02;;;;;;;8.38;5.50;;;640.00;1766.40;;;;;;5134055;27;20503;-81
2021/08/04 01:58:28;;;;;;;7.63;5.40;;;615.30;1740.80;;;;;;5133556;27;20583;-82
2021/08/04 02:00:53;;;;;;;7.20;5.32;;;615.30;1740.80;;;;;;5152503;27;20075;-81
2021/08/04 02:03:19;;;;;;;6.45;5.10;;;615.30;1740.80;;;;;;5133833;27;20388;-80
2021/08/04 02:05:46;;;;;;;7.18;5.28;;;615.30;1740.80;;;;;;5133245;27;20506;-79
2021/08/04 02:08:27;;;;;;;7.18;5.43;;;615.20;1715.20;;;;;;5133877;27;20421;-81
2021/08/04 02:11:11;;;;;;;6.40;4.72;;;615.20;1715.20;;;;;;5133241;27;20912;-79
2021/08/04 02:13:51;;;;;;;8.82;5.20;;;615.20;1740.80;;;;;;5151938;27;20049;-80
2021/08/04 02:16:26;;;;;;;6.80;4.95;;;615.10;1740.80;;;;;;5150440;27;20090;-81
2021/08/04 02:19:17;;;;;;;8.15;4.75;;;614.90;1740.80;;;;;;5133217;27;20022;-79
2021/08/04 02:21:50;;;;;;;7.70;4.90;;;614.90;1740.80;;;;;;5131904;27;20425;-79
2021/08/04 02:24:18;;;;;;;6.00;4.22;;;615.00;1740.80;;;;;;5131142;27;20494;-79
2021/08/04 02:26:49;;;;;;;8.20;4.68;;;614.70;1740.80;;;;;;5152043;27;20438;-80
2021/08/04 02:29:16;;;;;;;7.18;5.28;;;614.90;1740.80;;;;;;5151688;27;20054;-79
2021/08/04 02:31:46;;;;;;;12.10;5.75;;;614.90;1766.40;;;;;;5133708;27;20060;-80
2021/08/04 02:34:14;;;;;;;10.18;5.07;;;614.90;1766.40;;;;;;5151922;27;20027;-80
2021/08/04 02:36:39;;;;;;;9.57;5.38;;;614.70;1792.00;;;;;;5133946;27;20404;-81
2021/08/04 02:39:06;;;;;;;7.43;4.97;;;614.60;1792.00;;;;;;5133801;27;20396;-81
2021/08/04 02:41:47;;;;;;;9.05;5.28;;;589.70;1843.20;;;;;;5152675;27;20498;-80
2021/08/04 02:44:15;;;;;;;8.75;5.25;;;589.70;1843.20;;;;;;5151704;27;20472;-80
2021/08/04 02:46:43;;;;;;;8.77;5.40;;;589.40;1868.80;;;;;;5152169;27;20102;-82
2021/08/04 02:49:09;;;;;;;6.72;4.68;;;589.30;1894.40;;;;;;5133448;27;20011;-78
2021/08/04 02:51:39;;;;;;;6.63;4.78;;;589.10;1920.00;;;;;;5133184;27;20067;-79
2021/08/04 02:54:05;;;;;;;12.00;5.40;;;589.00;1920.00;;;;;;5133285;27;20072;-80
2021/08/04 02:56:34;;;;;;;6.43;4.57;;;588.80;1945.60;;;;;;5134229;27;20061;-80
2021/08/04 02:59:00;;;;;;;8.25;5.35;;;588.80;1945.60;;;;;;5151087;27;20486;-86
2021/08/04 03:01:26;;;;;;;10.55;5.20;;;564.00;1971.20;;;;;;5134651;27;20023;-81
2021/08/04 03:03:51;;;;;;;10.23;5.60;;;564.00;1971.20;;;;;;5133605;27;20038;-79
2021/08/04 03:06:17;;;;;;;9.75;5.10;;;564.00;1971.20;;;;;;5131907;27;20022;-79
2021/08/04 03:08:43;;;;;;;7.50;5.32;;;563.90;1971.20;;;;;;5151460;27;20042;-79
2021/08/04 03:11:12;;;;;;;10.52;5.50;;;563.70;1996.80;;;;;;5152135;27;20023;-78
2021/08/04 03:13:38;;;;;;;11.63;5.65;;;563.80;1996.80;;;;;;5150780;27;20035;-79
2021/08/04 03:16:04;;;;;;;7.95;5.78;;;563.70;1996.80;;;;;;5132291;27;20114;-79
2021/08/04 03:18:30;;;;;;;8.52;6.13;;;563.70;2022.40;;;;;;5151760;27;20564;-79
2021/08/04 03:20:56;;;;;;;9.43;7.00;;;563.60;2048.00;;;;;;5154701;27;20410;-80
2021/08/04 03:23:25;;;;;;;11.52;6.93;;;563.50;2048.00;;;;;;5136356;27;20049;-79
2021/08/04 03:25:51;;;;;;;14.60;6.95;;;563.50;2048.00;;;;;;5155270;27;20011;-81
2021/08/04 03:28:16;;;;;;;13.35;7.32;;;563.20;2073.60;;;;;;5137086;27;20535;-79
2021/08/04 03:30:42;;;;;;;11.07;7.38;;;538.50;2073.60;;;;;;5136424;27;20525;-79
2021/08/04 03:33:08;;;;;;;10.70;7.20;;;538.50;2099.20;;;;;;5155189;27;20034;-79
2021/08/04 03:35:34;;;;;;;10.52;6.85;;;538.40;2099.20;;;;;;5136097;27;20010;-80
2021/08/04 03:38:00;;;;;;;11.05;7.72;;;538.40;2099.20;;;;;;5155280;27;20014;-79
2021/08/04 03:40:29;;;;;;;14.23;8.68;;;538.50;2099.20;;;;;;5136133;27;20034;-79
2021/08/04 03:42:55;;;;;;;19.63;10.27;;;538.50;2099.20;;;;;;5136474;27;20487;-78
2021/08/04 03:45:26;;;;;;;13.85;9.18;;;563.30;2124.80;;;;;;5135102;27;20040;-77
2021/08/04 03:47:52;;;;;;;11.45;8.38;;;563.40;2124.80;;;;;;5135071;27;20019;-77
2021/08/04 03:50:18;;;;;;;11.43;8.55;;;563.60;2099.20;;;;;;5135799;27;20047;-78
2021/08/04 03:52:45;;;;;;;24.35;9.23;;;563.70;2099.20;;;;;;5135566;27;20117;-77
2021/08/04 03:55:12;;;;;;;11.85;8.85;;;563.70;2099.20;;;;;;5135366;27;20087;-77
2021/08/04 03:57:38;;;;;;;12.18;8.95;;;563.80;2073.60;;;;;;5154223;27;20042;-77
2021/08/04 04:00:05;;;;;;;13.88;9.05;;;588.90;2073.60;;;;;;5154469;27;20011;-77
2021/08/04 04:02:31;;;;;;;17.08;9.15;;;564.10;2048.00;;;;;;5154040;27;20033;-77
2021/08/04 04:04:56;;;;;;;13.98;9.05;;;588.80;2048.00;;;;;;5154300;27;20019;-77
2021/08/04 04:07:22;;;;;;;12.35;8.75;;;589.00;2022.40;;;;;;5153537;27;20026;-77
2021/08/04 04:09:48;;;;;;;15.43;9.35;;;589.10;2022.40;;;;;;5155426;27;20029;-79
2021/08/04 04:12:14;;;;;;;23.67;9.77;;;589.20;1996.80;;;;;;5154599;27;20030;-77
2021/08/04 04:14:39;;;;;;;11.90;8.65;;;589.20;1996.80;;;;;;5152177;27;20054;-78
2021/08/04 04:17:05;;;;;;;14.77;9.48;;;589.30;1996.80;;;;;;5136553;27;20019;-80
2021/08/04 04:19:31;;;;;;;11.32;8.88;;;589.30;2022.40;;;;;;5154881;27;20030;-78
2021/08/04 04:21:56;;;;;;;11.75;8.82;;;589.40;2022.40;;;;;;5136240;27;20433;-78
2021/08/04 04:24:22;;;;;;;14.13;8.55;;;589.40;2022.40;;;;;;5154911;27;20035;-78
2021/08/04 04:26:48;;;;;;;15.38;8.55;;;589.20;2048.00;;;;;;5155124;27;20015;-76
2021/08/04 04:29:14;;;;;;;13.23;8.23;;;589.10;2048.00;;;;;;5154789;27;20050;-77
2021/08/04 04:31:39;;;;;;;13.75;8.82;;;589.20;2048.00;;;;;;5136369;27;20023;-77
2021/08/04 04:34:05;;;;;;;10.73;8.18;;;589.40;2022.40;;;;;;5136057;27;20055;-78
2021/08/04 04:36:31;;;;;;;11.00;8.52;;;589.50;2022.40;;;;;;5154855;27;20038;-77
2021/08/04 04:38:57;;;;;;;13.85;8.18;;;589.50;2022.40;;;;;;5136074;27;20486;-78
2021/08/04 04:41:22;;;;;;;14.10;9.98;;;589.40;2022.40;;;;;;5135809;27;20041;-77
2021/08/04 04:43:48;;;;;;;25.38;18.77;;;589.50;2022.40;;;;;;5154741;27;20468;-77
2021/08/04 04:46:14;;;;;;;19.65;14.45;;;589.60;1996.80;;;;;;5153559;27;20034;-78
2021/08/04 04:48:40;;;;;;;14.35;9.82;;;589.70;1996.80;;;;;;5154706;27;20064;-76
2021/08/04 04:51:07;;;;;;;16.02;9.73;;;589.70;1996.80;;;;;;5153798;27;20384;-77
2021/08/04 04:53:32;;;;;;;12.35;8.98;;;589.70;1996.80;;;;;;5135801;27;20039;-77
2021/08/04 04:55:58;;;;;;;12.63;9.45;;;614.40;2022.40;;;;;;5136027;27;20023;-77
2021/08/04 04:58:24;;;;;;;10.98;7.45;;;614.40;1996.80;;;;;;5136329;27;20061;-77
2021/08/04 05:00:49;;;;;;;15.45;8.93;;;589.70;1996.80;;;;;;5135998;27;20082;-76
2021/08/04 05:03:15;;;;;;;10.07;7.70;;;614.40;2022.40;;;;;;5153993;27;20486;-77
2021/08/04 05:05:41;;;;;;;13.18;7.95;;;614.40;2048.00;;;;;;5135074;27;20035;-77
2021/08/04 05:08:07;;;;;;;13.48;8.45;;;589.70;2099.20;;;;;;5135391;27;20535;-76
2021/08/04 05:10:33;;;;;;;16.00;9.07;;;589.70;2073.60;;;;;;5136141;27;20035;-77
2021/08/04 05:12:58;;;;;;;14.93;9.35;;;589.70;2022.40;;;;;;5135706;27;20034;-77
2021/08/04 05:15:24;;;;;;;12.77;8.88;;;614.40;2022.40;;;;;;5135598;27;20499;-77
2021/08/04 05:17:50;;;;;;;11.95;8.15;;;614.50;2022.40;;;;;;5135871;27;20075;-76
2021/08/04 05:20:15;;;;;;;13.30;8.07;;;614.60;1996.80;;;;;;5154450;27;20050;-77
2021/08/04 05:22:42;;;;;;;9.98;6.40;;;614.50;2022.40;;;;;;5135427;27;20038;-75
2021/08/04 05:25:09;;;;;;;15.02;11.07;;;640.00;1996.80;;;;;;5135837;27;20054;-75
2021/08/04 05:27:34;;;;;;;19.25;10.98;;;614.70;1996.80;;;;;;5153812;27;20023;-76
2021/08/04 05:30:00;;;;;;;10.80;6.57;;;614.90;1971.20;;;;;;5135730;27;20026;-76
2021/08/04 05:32:26;;;;;;;9.27;6.28;;;614.90;1945.60;;;;;;5153902;27;20026;-77
2021/08/04 05:34:52;;;;;;;9.75;5.93;;;614.90;1920.00;;;;;;5135226;27;20114;-77
2021/08/04 05:37:17;;;;;;;10.60;6.15;;;614.90;1920.00;;;;;;5153403;27;20023;-77
2021/08/04 05:39:43;;;;;;;9.23;5.80;;;614.90;1920.00;;;;;;5135352;27;20071;-77
2021/08/04 05:42:09;;;;;;;6.95;5.07;;;614.80;1945.60;;;;;;5153358;27;20022;-75
2021/08/04 05:44:34;;;;;;;10.23;4.97;;;614.90;1894.40;;;;;;5153566;27;20038;-74
2021/08/04 05:47:00;;;;;;;8.10;5.95;;;615.10;1920.00;;;;;;5153808;27;20052;-75
2021/08/04 05:49:26;;;;;;;9.93;6.43;;;614.90;1920.00;;;;;;5153358;27;20030;-75
2021/08/04 05:51:53;;;;;;;9.02;6.72;;;614.90;1894.40;;;;;;5135145;27;20019;-75
2021/08/04 05:54:19;;;;;;;67.20;11.40;;;614.90;1920.00;;;;;;5134731;27;20391;-77
2021/08/04 05:56:45;;;;;;;10.73;7.10;;;615.10;1920.00;;;;;;5153762;27;20053;-78
2021/08/04 05:59:11;;;;;;;10.52;7.47;;;615.20;1868.80;;;;;;5135041;27;20029;-76
2021/08/04 06:01:37;;;;;;;11.48;6.97;;;615.10;1868.80;;;;;;5134939;27;20030;-75
2021/08/04 06:04:03;;;;;;;9.88;6.13;;;615.20;1868.80;;;;;;5153447;27;20033;-76
2021/08/04 06:06:28;;;;;;;11.38;6.45;;;615.20;1868.80;;;;;;5153160;27;20023;-75
2021/08/04 06:08:57;;;;;;;6.82;5.43;;;615.20;1843.20;;;;;;5135127;27;20115;-75
2021/08/04 06:11:24;;;;;;;12.85;5.97;;;615.20;1843.20;;;;;;5153102;27;20027;-75
2021/08/04 06:13:50;;;;;;;8.40;5.32;;;615.20;1868.80;;;;;;5134886;27;20046;-75
2021/08/04 06:16:15;;;;;;;8.05;5.53;;;640.10;1817.60;;;;;;5153157;27;20026;-76
2021/08/04 06:18:41;;;;;;;9.48;5.38;;;640.20;1792.00;;;;;;5153536;27;20364;-76
2021/08/04 06:21:07;;;;;;;11.23;6.00;;;640.20;1817.60;;;;;;5153237;27;20380;-76
2021/08/04 06:23:34;;;;;;;11.27;5.75;;;640.50;1817.60;;;;;;5134409;27;20050;-75
2021/08/04 06:26:00;;;;;;;6.80;4.63;;;640.50;1792.00;;;;;;5134653;27;20095;-75
2021/08/04 06:28:26;;;;;;;7.32;4.75;;;640.60;1817.60;;;;;;5153334;27;20027;-76
2021/08/04 06:30:51;;;;;;;8.93;5.35;;;640.70;1766.40;;;;;;5153132;27;20023;-76
2021/08/04 06:33:17;;;;;;;7.32;4.97;;;640.80;1766.40;;;;;;5152962;27;20095;-75
2021/08/04 06:35:43;;;;;;;9.98;5.18;;;640.70;1766.40;;;;;;5153113;27;20046;-75
2021/08/04 06:38:09;;;;;;;11.88;5.28;;;640.70;1766.40;;;;;;5134555;27;20022;-76
2021/08/04 06:40:35;;;;;;;7.43;5.15;;;665.60;1792.00;;;;;;5153242;27;20028;-76
2021/08/04 06:43:00;;;;;;;8.23;5.68;;;665.70;1792.00;;;;;;5152906;27;20018;-75
2021/08/04 06:45:26;;;;;;;13.35;6.20;;;665.90;1766.40;;;;;;5152920;27;20031;-75
2021/08/04 06:47:52;;;;;;;9.75;5.03;;;666.00;1715.20;;;;;;5134470;27;20069;-75
2021/08/04 06:50:17;;;;;;;14.40;8.52;;;666.10;1715.20;;;;;;5153187;27;20134;-76
2021/08/04 06:52:43;;;;;;;6.80;5.45;;;666.20;1740.80;;;;;;5152708;27;20030;-76
2021/08/04 06:55:10;;;;;;;9.68;6.10;;;666.10;1740.80;;;;;;5154890;27;20593;-75
2021/08/04 06:57:36;;;;;;;10.07;5.50;;;666.20;1715.20;;;;;;5137645;27;20038;-75
2021/08/04 07:00:02;;;;;;;10.55;5.35;;;666.40;1740.80;;;;;;5156795;27;20027;-75
2021/08/04 07:02:27;;;;;;;7.28;4.20;;;666.50;1689.60;;;;;;5156924;27;20027;-76
2021/08/04 07:04:53;;;;;;;9.50;5.07;;;691.20;1664.00;;;;;;5138215;27;20030;-76
2021/08/04 07:07:19;;;;;;;8.15;4.63;;;691.20;1689.60;;;;;;5156786;27;20031;-76
2021/08/04 07:09:45;;;;;;;5.47;4.10;;;691.40;1689.60;;;;;;5156545;27;20025;-75
2021/08/04 07:12:11;;;;;;;8.55;4.95;;;691.50;1689.60;;;;;;5138250;27;20031;-77
2021/08/04 07:14:38;;;;;;;9.23;4.30;;;691.50;1689.60;;;;;;5156424;27;20035;-75
2021/08/04 07:17:04;;;;;;;10.10;4.93;;;691.60;1664.00;;;;;;5138240;27;20101;-75
2021/08/04 07:19:29;;;;;;;10.18;5.18;;;691.60;1638.40;;;;;;5137830;27;20117;-76
2021/08/04 07:21:55;;;;;;;8.85;5.80;;;691.70;1638.40;;;;;;5137911;27;20029;-75
2021/08/04 07:24:21;;;;;;;6.82;5.25;;;691.80;1664.00;;;;;;5137714;27;20388;-76
2021/08/04 07:26:47;;;;;;;7.47;4.97;;;691.90;1638.40;;;;;;5155779;27;20399;-77
2021/08/04 07:29:12;;;;;;;7.47;4.82;;;691.90;1638.40;;;;;;5137024;27;20114;-75
2021/08/04 07:31:40;;;;;;;16.25;5.20;;;692.00;1612.80;;;;;;5134157;27;20015;-75
2021/08/04 07:34:06;;;;;;;7.05;4.90;;;692.00;1612.80;;;;;;5137187;27;20046;-76
2021/08/04 07:36:32;;;;;;;9.68;5.03;;;692.10;1664.00;;;;;;5137210;27;20105;-77
2021/08/04 07:38:58;;;;;;;6.68;4.85;;;716.80;1612.80;;;;;;5155612;27;20483;-76
2021/08/04 07:41:24;;;;;;;7.32;4.88;;;716.80;1587.20;;;;;;5137217;27;20136;-77
2021/08/04 07:43:49;;;;;;;7.78;4.72;;;716.90;1612.80;;;;;;5137536;27;20472;-76
2021/08/04 07:46:17;;;;;;;8.57;5.25;;;717.10;1587.20;;;;;;5136818;27;20380;-76
2021/08/04 07:48:44;;;;;;;8.32;4.28;;;717.10;1561.60;;;;;;5137721;27;20048;-75
2021/08/04 07:51:10;;;;;;;6.72;4.90;;;717.10;1587.20;;;;;;5135721;27;20064;-76
2021/08/04 07:53:36;;;;;;;9.18;4.90;;;717.10;1536.00;;;;;;5136258;27;20460;-76
2021/08/04 07:56:02;;;;;;;9.85;4.80;;;717.20;1561.60;;;;;;5136614;27;20106;-76
2021/08/04 07:58:28;;;;;;;9.55;4.70;;;717.20;1561.60;;;;;;5153323;27;20035;-75
2021/08/04 08:00:54;;;;;;;6.72;4.60;;;717.20;1561.60;;;;;;5155376;27;20184;-76
2021/08/04 08:03:19;;;;;;;7.45;4.53;;;717.40;1536.00;;;;;;5135702;27;20023;-75
2021/08/04 08:05:45;;;;;;;9.27;5.07;;;717.50;1587.20;;;;;;5136393;27;20488;-76
2021/08/04 08:08:12;;;;;;;8.80;5.50;;;717.60;1536.00;;;;;;5155204;27;20026;-75
2021/08/04 08:10:41;;;;;;;6.72;5.20;;;742.40;1561.60;;;;;;5155721;27;20022;-76
2021/08/04 08:13:08;;;;;;;7.57;5.38;;;742.40;1587.20;;;;;;5136778;27;20031;-75
2021/08/04 08:15:34;;;;;;;9.52;5.03;;;742.50;1587.20;;;;;;5154927;27;20076;-75
2021/08/04 08:18:08;;;;;;;7.70;4.55;;;742.40;1612.80;;;;;;5155523;27;20046;-76
2021/08/04 08:20:35;;;;;;;8.63;5.03;;;742.50;1612.80;;;;;;5154995;27;20031;-75
2021/08/04 08:23:01;;;;;;;6.85;4.28;;;742.70;1561.60;;;;;;5154946;27;20411;-75
2021/08/04 08:25:27;;;;;;;8.65;3.80;;;742.80;1536.00;;;;;;5151682;27;20357;-75
2021/08/04 08:27:53;;;;;;;6.82;4.43;;;742.80;1536.00;;;;;;5155123;27;20027;-76
2021/08/04 08:30:19;;;;;;;7.93;4.38;;;742.80;1510.40;;;;;;5154797;27;20023;-75
2021/08/04 08:32:48;;;;;;;7.50;4.00;;;742.70;1510.40;;;;;;5155422;27;20026;-74
2021/08/04 08:35:15;;;;;;;7.22;3.97;;;742.60;1536.00;;;;;;5154944;27;20543;-75
2021/08/04 08:37:42;;;;;;;5.97;4.00;;;742.70;1536.00;;;;;;5154901;27;20027;-74
2021/08/04 08:40:08;;;;;;;5.60;4.00;;;742.90;1510.40;;;;;;5155107;27;20025;-77
2021/08/04 08:42:34;;;;;;;5.25;3.72;;;743.00;1459.20;;;;;;5154398;27;20026;-75
2021/08/04 08:45:00;;;;;;;7.90;4.32;;;742.90;1484.80;;;;;;5154246;27;20380;-75
2021/08/04 08:47:26;;;;;;;7.63;4.20;;;743.00;1510.40;;;;;;5135547;27;20498;-73
2021/08/04 08:49:52;;;;;;;7.55;4.15;;;743.10;1510.40;;;;;;5154533;27;20022;-74
2021/08/04 08:52:18;;;;;;;5.88;4.05;;;743.30;1510.40;;;;;;5153608;27;20027;-75
2021/08/04 08:54:44;;;;;;;6.38;3.35;;;743.30;1459.20;;;;;;5154024;27;20107;-73
2021/08/04 08:57:10;;;;;;;7.45;4.00;;;743.30;1433.60;;;;;;5154435;27;20105;-74
2021/08/04 08:59:36;;;;;;;5.00;4.05;;;743.30;1433.60;;;;;;5154494;27;20030;-74
2021/08/04 09:02:04;;;;;;;7.18;4.60;;;768.00;1408.00;;;;;;5154835;27;20019;-75
2021/08/04 09:04:29;;;;;;;6.93;4.38;;;768.00;1408.00;;;;;;5154589;27;20018;-74
2021/08/04 09:07:00;;;;;;;5.97;3.78;;;768.00;1408.00;;;;;;5154855;27;20023;-74
2021/08/04 09:09:28;;;;;;;7.18;4.15;;;768.10;1408.00;;;;;;5153953;27;20098;-74
2021/08/04 09:12:09;;;;;;;6.90;4.28;;;768.00;1382.40;;;;;;5153976;27;20033;-73
2021/08/04 09:14:36;;;;;;;5.63;3.63;;;768.10;1408.00;;;;;;5153025;27;20038;-77
2021/08/04 09:17:09;;;;;;;8.02;3.72;;;768.10;1408.00;;;;;;5153111;27;20023;-76
2021/08/04 09:19:38;;;;;;;6.68;4.28;;;768.20;1382.40;;;;;;5153889;27;20077;-75
2021/08/04 09:22:07;;;;;;;6.85;4.28;;;768.40;1382.40;;;;;;5153490;27;20038;-75
2021/08/04 09:24:55;;;;;;;5.80;3.60;;;768.40;1382.40;;;;;;5153720;27;20471;-76
2021/08/04 09:27:47;;;;;;;10.32;4.38;;;768.50;1408.00;;;;;;5148473;27;20015;-76
2021/08/04 09:30:25;;;;;;;6.20;3.75;;;768.60;1382.40;;;;;;5152748;27;20041;-75
2021/08/04 09:32:51;;;;;;;9.13;4.13;;;768.70;1356.80;;;;;;5152300;27;20046;-79
2021/08/04 09:35:22;;;;;;;11.02;4.38;;;768.90;1305.60;;;;;;5153661;27;20019;-79
2021/08/04 09:37:48;;;;;;;6.45;4.47;;;768.90;1280.00;;;;;;5153420;27;20015;-76
2021/08/04 09:40:18;;;;;;;6.45;4.32;;;768.90;1305.60;;;;;;5134496;27;20122;-77
2021/08/04 09:43:03;;;;;;;5.57;3.78;;;793.70;1305.60;;;;;;5129928;27;20034;-78
2021/08/04 09:45:37;;;;;;;6.68;3.97;;;793.70;1280.00;;;;;;5132779;27;20539;-77
2021/08/04 09:48:09;;;;;;;6.10;3.40;;;793.70;1280.00;;;;;;5153851;27;20023;-76
2021/08/04 09:50:57;;;;;;;6.93;4.15;;;793.80;1254.40;;;;;;5153479;27;20034;-76
2021/08/04 09:53:28;;;;;;;6.05;3.78;;;794.00;1254.40;;;;;;5153570;27;20073;-77
2021/08/04 09:56:20;;;;;;;10.02;3.85;;;794.00;1228.80;;;;;;5153644;27;20042;-76
2021/08/04 09:58:54;;;;;;;7.97;3.35;;;794.30;1228.80;;;;;;5153938;27;20064;-75
2021/08/04 10:01:38;;;;;;;5.97;3.70;;;794.40;1177.60;;;;;;5153518;27;20015;-77
2021/08/04 10:04:06;;;;;;;6.05;3.88;;;819.30;1152.00;;;;;;5153820;27;20272;-75
2021/08/04 10:06:39;;;;;;;5.93;3.58;;;819.40;1100.80;;;;;;5153511;27;20034;-76
2021/08/04 10:09:07;;;;;;;7.45;3.80;;;819.30;1126.40;;;;;;5153107;27;20114;-75
2021/08/04 10:11:33;;;;;;;5.25;3.53;;;819.20;1126.40;;;;;;5153710;27;20102;-77
2021/08/04 10:13:59;;;;;;;6.47;4.18;;;819.30;1152.00;;;;;;5153329;27;20096;-76
2021/08/04 10:16:33;;;;;;;6.43;4.28;;;819.50;1152.00;;;;;;5153726;27;20388;-75
2021/08/04 10:19:01;;;;;;;7.00;3.92;;;819.60;1203.20;;;;;;5153377;27;20125;-75
2021/08/04 10:21:28;;;;;;;5.78;3.70;;;819.50;1203.20;;;;;;5153531;27;20027;-76
2021/08/04 10:23:54;;;;;;;5.65;3.85;;;819.60;1228.80;;;;;;5153225;27;20047;-77
2021/08/04 10:26:21;;;;;;;6.68;4.07;;;819.80;1152.00;;;;;;5153346;27;20428;-75
2021/08/04 10:28:52;;;;;;;6.80;4.10;;;820.00;1152.00;;;;;;5154663;27;20026;-79
2021/08/04 10:31:19;;;;;;;6.07;3.58;;;820.10;1152.00;;;;;;5156858;27;20046;-77
2021/08/04 10:33:45;;;;;;;8.60;6.05;;;819.80;1100.80;;;;;;5157605;27;20378;-75
2021/08/04 10:36:13;;;;;;;7.63;3.38;;;819.80;1177.60;;;;;;5157731;27;20023;-76
2021/08/04 10:38:49;;;;;;;7.15;3.70;;;819.80;1152.00;;;;;;5157622;27;20038;-76
2021/08/04 10:41:23;;;;;;;7.40;3.25;;;820.00;1152.00;;;;;;5157365;27;20050;-76
2021/08/04 10:43:49;;;;;;;5.22;3.33;;;820.00;1152.00;;;;;;5157255;27;20038;-76
2021/08/04 10:46:30;;;;;;;4.43;3.60;;;844.80;1152.00;;;;;;5157475;27;20035;-76
2021/08/04 10:49:05;;;;;;;4.47;3.47;;;844.90;1100.80;;;;;;5157383;27;20054;-76
2021/08/04 10:51:43;;;;;;;5.30;3.30;;;845.10;1126.40;;;;;;5157318;27;20492;-76
2021/08/04 10:54:14;;;;;;;4.60;3.33;;;845.20;1126.40;;;;;;5157295;27;20492;-76
2021/08/04 10:56:43;;;;;;;6.93;3.88;;;845.30;1126.40;;;;;;5157238;27;20018;-76
2021/08/04 10:59:08;;;;;;;7.10;3.70;;;845.40;1100.80;;;;;;5157340;27;20023;-77
2021/08/04 11:01:35;;;;;;;5.25;3.80;;;845.40;1075.20;;;;;;5157043;27;20022;-76
2021/08/04 11:04:01;;;;;;;10.38;4.03;;;845.20;1126.40;;;;;;5157190;27;20106;-77
2021/08/04 11:06:27;;;;;;;7.43;3.63;;;845.20;1126.40;;;;;;5156948;27;20046;-77
2021/08/04 11:09:21;;;;;;;9.60;3.42;;;845.40;1100.80;;;;;;5156422;27;20061;-75
2021/08/04 11:11:58;;;;;;;5.03;3.80;;;845.60;1100.80;;;;;;5125777;27;20121;-78
2021/08/04 11:14:36;;;;;;;6.22;3.55;;;845.60;1100.80;;;;;;5137945;27;20042;-79
2021/08/04 11:17:03;;;;;;;5.55;4.35;;;845.60;1100.80;;;;;;5156747;27;20022;-79
2021/08/04 11:19:34;;;;;;;6.80;4.90;;;845.60;1075.20;;;;;;5156584;27;20027;-79
2021/08/04 11:22:22;;;;;;;5.28;4.25;;;845.40;1100.80;;;;;;5156222;27;20038;-79
2021/08/04 11:24:56;;;;;;;6.32;4.03;;;844.90;1075.20;;;;;;5137110;27;20027;-79
2021/08/04 11:27:25;;;;;;;5.78;4.60;;;845.40;1100.80;;;;;;5156063;27;20023;-78
2021/08/04 11:29:53;;;;;;;6.90;4.70;;;845.40;1100.80;;;;;;5155910;27;20018;-78
2021/08/04 11:32:22;;;;;;;8.98;5.18;;;845.30;1100.80;;;;;;5155592;27;20022;-78
2021/08/04 11:34:48;;;;;;;5.82;4.70;;;845.70;1075.20;;;;;;5155689;27;20028;-78
2021/08/04 11:37:14;;;;;;;7.18;4.82;;;870.40;1075.20;;;;;;5155958;27;20062;-78
2021/08/04 11:40:02;;;;;;;6.63;5.00;;;845.50;1049.60;;;;;;5155960;27;20480;-77
2021/08/04 11:42:30;;;;;;;9.48;5.18;;;845.70;1075.20;;;;;;5150402;27;20023;-78
2021/08/04 11:45:10;;;;;;;10.90;4.78;;;845.50;1075.20;;;;;;5155702;27;20026;-77
2021/08/04 11:47:36;;;;;;;7.80;4.78;;;845.40;1100.80;;;;;;5154561;27;20031;-77
2021/08/04 11:50:06;;;;;;;7.78;4.22;;;845.30;1024.00;;;;;;5155480;27;20023;-77
2021/08/04 11:52:34;;;;;;;5.88;4.47;;;845.70;1049.60;;;;;;5137086;27;20536;-76
2021/08/04 11:55:07;;;;;;;5.68;3.95;;;870.70;1049.60;;;;;;5155456;27;20035;-85
2021/08/04 11:57:36;;;;;;;9.45;4.78;;;870.70;998.40;;;;;;5156600;27;20023;-76
2021/08/04 12:00:01;;;;;;;9.45;4.53;;;871.00;998.40;;;;;;5156270;27;20015;-78
2021/08/04 12:02:32;;;;;;;5.65;3.90;;;871.00;998.40;;;;;;5156086;27;20029;-77
2021/08/04 12:04:59;;;;;;;7.65;3.47;;;871.00;947.20;;;;;;5156222;27;20034;-77
2021/08/04 12:07:27;;;;;;;6.00;3.90;;;871.10;947.20;;;;;;5155717;27;20054;-78
2021/08/04 12:09:54;;;;;;;6.28;3.30;;;871.10;921.60;;;;;;5155933;27;20022;-78
2021/08/04 12:12:23;;;;;;;6.05;3.42;;;871.10;921.60;;;;;;5136861;27;20072;-78
2021/08/04 12:14:51;;;;;;;4.22;3.08;;;871.10;921.60;;;;;;5155767;27;20027;-79
2021/08/04 12:17:26;;;;;;;4.53;3.33;;;871.20;921.60;;;;;;5155737;27;20106;-78
2021/08/04 12:19:54;;;;;;;4.90;2.97;;;871.20;870.40;;;;;;5155667;27;20023;-77